Time;durP1;ratioP1;P1;durP2;ratioP2;P2;SDS_P1;SDS_P2;PMS_P1;PMS_P2;Temp;Humidity;BMP_temperature;BMP_pressure;BME280_temperature;BME280_humidity;BME280_pressure;Samples;Min_cycle;Max_cycle;Signal;HPM_P1;HPM_P2
2021/04/27 00:01:46;;;;;;;5.22;3.10;;;8.90;42.20;;;7.92;35.09;97764.56;5079596;28;20429;-78
2021/04/27 00:04:13;;;;;;;5.03;3.08;;;8.90;42.30;;;7.98;35.21;97760.22;5079256;28;20410;-78
2021/04/27 00:06:39;;;;;;;8.10;3.17;;;9.00;42.40;;;7.98;35.08;97760.22;5079134;28;20470;-78
2021/04/27 00:09:06;;;;;;;5.28;2.90;;;9.00;42.20;;;7.96;35.03;97744.66;5079981;28;20420;-79
2021/04/27 00:11:33;;;;;;;5.63;3.40;;;9.00;42.20;;;7.78;35.48;97744.69;5080919;28;20439;-79
2021/04/27 00:14:00;;;;;;;5.03;3.20;;;8.90;42.70;;;7.87;35.39;97748.63;5080862;28;20408;-79
2021/04/27 00:16:27;;;;;;;9.50;3.22;;;8.90;42.60;;;7.88;35.51;97746.81;5080634;28;20844;-78
2021/04/27 00:18:53;;;;;;;6.82;3.05;;;8.90;42.90;;;7.84;35.53;97746.44;5080414;28;20411;-78
2021/04/27 00:21:20;;;;;;;7.63;2.70;;;8.80;42.80;;;7.66;35.82;97738.59;5080333;28;20809;-78
2021/04/27 00:23:46;;;;;;;6.57;3.13;;;8.80;42.90;;;7.56;36.19;97736.50;5080573;28;20532;-78
2021/04/27 00:26:12;;;;;;;8.82;3.10;;;8.60;43.30;;;7.57;35.90;97738.09;5077845;28;20659;-78
2021/04/27 00:28:38;;;;;;;9.05;3.10;;;8.60;43.30;;;7.49;36.70;97738.41;5079081;28;20852;-78
2021/04/27 00:31:06;;;;;;;7.90;3.27;;;8.60;43.80;;;7.36;36.73;97731.50;5079568;28;20403;-79
2021/04/27 00:33:32;;;;;;;6.57;3.50;;;8.40;43.90;;;7.49;36.39;97734.97;5079909;28;20577;-78
2021/04/27 00:35:59;;;;;;;7.45;3.67;;;8.50;43.80;;;7.57;36.26;97729.41;5078774;28;20523;-80
2021/04/27 00:38:25;;;;;;;7.03;3.28;;;8.60;43.80;;;7.64;35.84;97728.28;5079741;28;20414;-79
2021/04/27 00:40:51;;;;;;;7.10;2.97;;;8.60;43.20;;;7.56;36.24;97725.16;5078588;28;20774;-78
2021/04/27 00:43:17;;;;;;;6.57;3.00;;;8.60;43.60;;;7.75;35.91;97721.44;5078452;28;20411;-79
2021/04/27 00:45:43;;;;;;;6.65;3.60;;;8.70;43.10;;;7.94;35.33;97730.09;5078905;28;20410;-78
2021/04/27 00:48:10;;;;;;;4.45;3.13;;;8.90;42.80;;;8.14;35.04;97715.56;5087058;28;20433;-79
2021/04/27 00:50:40;;;;;;;7.65;3.00;;;9.10;42.40;;;8.19;34.74;97714.09;5094545;28;20396;-79
2021/04/27 00:53:08;;;;;;;5.82;3.03;;;9.20;41.80;;;8.27;34.59;97717.19;5065707;28;20502;-79
2021/04/27 00:55:35;;;;;;;6.32;2.70;;;9.20;41.80;;;8.26;34.74;97715.59;5086661;28;20420;-79
2021/04/27 00:58:01;;;;;;;6.60;3.08;;;9.20;41.70;;;8.31;34.61;97717.56;5082386;28;20407;-79
2021/04/27 01:00:31;;;;;;;7.30;3.40;;;9.30;41.70;;;8.46;34.83;97710.81;5079424;28;20428;-79
2021/04/27 01:02:57;;;;;;;6.25;3.03;;;9.40;42.00;;;8.38;34.35;97715.63;5083509;28;20439;-79
2021/04/27 01:05:28;;;;;;;6.07;3.53;;;9.40;41.40;;;8.30;34.48;97715.94;5081027;28;20395;-79
2021/04/27 01:08:04;;;;;;;7.40;3.22;;;9.30;41.40;;;8.29;34.68;97712.50;5084839;28;20416;-79
2021/04/27 01:10:39;;;;;;;6.18;3.00;;;9.20;41.60;;;8.19;34.73;97707.00;5066687;28;20571;-80
2021/04/27 01:13:17;;;;;;;6.07;3.33;;;9.20;41.90;;;8.21;34.92;97709.38;5080592;28;20400;-80
2021/04/27 01:15:44;;;;;;;9.63;3.17;;;9.20;42.20;;;8.26;34.99;97705.06;5080727;28;20458;-79
2021/04/27 01:18:11;;;;;;;7.47;3.53;;;9.20;42.20;;;8.20;35.09;97711.22;5081481;28;20407;-80
2021/04/27 01:20:41;;;;;;;6.20;3.10;;;9.20;42.10;;;8.12;35.12;97699.16;5080327;28;20411;-79
2021/04/27 01:23:29;;;;;;;5.80;3.30;;;9.10;42.20;;;8.05;35.40;97703.75;5087768;28;20400;-79
2021/04/27 01:26:03;;;;;;;5.95;3.17;;;9.10;42.50;;;8.00;35.52;97708.09;5086601;28;20416;-79
2021/04/27 01:28:31;;;;;;;8.23;3.10;;;9.00;42.80;;;7.93;35.71;97699.47;5085645;28;20408;-79
2021/04/27 01:30:58;;;;;;;5.82;3.10;;;8.90;42.90;;;7.95;35.75;97695.59;5082800;28;20426;-79
2021/04/27 01:33:28;;;;;;;5.22;3.35;;;8.90;43.00;;;7.90;36.06;97690.19;5084119;28;20414;-79
2021/04/27 01:35:56;;;;;;;10.02;3.88;;;8.90;43.20;;;7.95;35.78;97695.59;5041309;28;20689;-79
2021/04/27 01:38:23;;;;;;;8.60;3.60;;;8.90;43.10;;;7.85;35.90;97692.69;5041336;28;20808;-79
2021/04/27 01:40:51;;;;;;;11.33;3.47;;;8.90;43.30;;;7.87;36.17;97693.28;5041232;28;20403;-79
2021/04/27 01:43:18;;;;;;;6.28;3.30;;;8.90;43.50;;;8.00;36.07;97692.28;5041166;28;20415;-79
2021/04/27 01:45:48;;;;;;;6.40;3.00;;;8.90;43.60;;;7.94;36.35;97687.91;5039751;28;20418;-79
2021/04/27 01:48:15;;;;;;;9.48;3.38;;;9.00;43.50;;;7.70;36.94;97690.50;5040708;28;20671;-78
2021/04/27 01:50:43;;;;;;;6.60;3.27;;;8.90;44.20;;;7.57;36.91;97688.06;5039639;28;20446;-79
2021/04/27 01:53:11;;;;;;;7.90;3.30;;;8.60;44.30;;;7.58;36.92;97687.03;5039456;28;20685;-79
2021/04/27 01:55:38;;;;;;;6.72;3.47;;;8.60;44.30;;;7.70;36.94;97687.84;5038396;28;20426;-79
2021/04/27 01:58:04;;;;;;;12.77;3.05;;;8.70;44.30;;;7.87;36.77;97680.13;5036748;28;20434;-78
2021/04/27 02:00:30;;;;;;;4.47;3.22;;;8.80;44.40;;;7.81;37.33;97682.84;5038244;28;20414;-78
2021/04/27 02:02:58;;;;;;;4.23;3.40;;;8.90;44.50;;;7.62;37.34;97675.00;5038286;28;20496;-78
2021/04/27 02:05:24;;;;;;;6.65;3.00;;;8.70;44.60;;;7.28;38.40;97673.88;5038497;28;20399;-78
2021/04/27 02:07:50;;;;;;;7.47;3.58;;;8.40;45.50;;;7.17;38.55;97665.91;5037378;28;20941;-77
2021/04/27 02:10:16;;;;;;;5.30;3.40;;;8.20;46.20;;;7.31;37.94;97668.13;5037946;28;20411;-79
2021/04/27 02:12:47;;;;;;;7.57;3.60;;;8.30;45.60;;;7.38;37.65;97668.84;5038169;28;20411;-78
2021/04/27 02:15:16;;;;;;;9.80;3.67;;;8.40;45.20;;;7.48;37.99;97670.16;5037724;28;20434;-78
2021/04/27 02:17:48;;;;;;;6.35;3.35;;;8.50;45.60;;;7.62;37.80;97666.28;5037509;28;20419;-78
2021/04/27 02:20:16;;;;;;;7.30;3.67;;;8.60;45.40;;;7.60;37.21;97665.69;5036261;28;20454;-78
2021/04/27 02:22:45;;;;;;;6.50;3.63;;;8.60;45.30;;;7.24;38.25;97661.34;5039308;28;20422;-79
2021/04/27 02:25:13;;;;;;;5.35;3.45;;;8.40;45.60;;;7.08;38.74;97659.31;5037579;28;20510;-79
2021/04/27 02:27:42;;;;;;;7.23;3.53;;;8.20;46.40;;;6.71;39.77;97664.63;5051290;28;20607;-79
2021/04/27 02:30:12;;;;;;;8.13;3.33;;;7.90;47.30;;;6.46;40.63;97661.25;5044289;28;20713;-78
2021/04/27 02:32:40;;;;;;;8.45;3.55;;;7.60;48.20;;;6.37;41.21;97666.00;5043898;28;20804;-79
2021/04/27 02:35:09;;;;;;;8.50;3.60;;;7.50;48.60;;;6.34;40.97;97668.25;5063621;28;20411;-79
2021/04/27 02:37:37;;;;;;;9.48;3.70;;;7.50;48.70;;;6.29;40.65;97666.28;5081112;28;20438;-79
2021/04/27 02:40:06;;;;;;;8.32;3.67;;;7.40;48.70;;;6.25;41.05;97654.56;5084239;28;20418;-79
2021/04/27 02:42:34;;;;;;;8.30;3.40;;;7.40;49.00;;;6.21;40.84;97656.03;5088251;28;20399;-79
2021/04/27 02:45:00;;;;;;;6.43;3.53;;;7.30;49.00;;;6.33;41.10;97656.13;5083379;28;20408;-78
2021/04/27 02:47:26;;;;;;;6.43;3.47;;;7.40;49.30;;;6.51;40.77;97648.25;5079940;28;20416;-79
2021/04/27 02:49:52;;;;;;;7.70;3.70;;;7.50;48.90;;;6.60;40.72;97647.75;5081429;28;20920;-79
2021/04/27 02:52:19;;;;;;;7.18;3.50;;;7.70;48.80;;;6.76;40.58;97643.75;5084577;28;20518;-79
2021/04/27 02:54:46;;;;;;;9.00;3.35;;;7.80;48.70;;;6.81;40.22;97646.50;5083475;28;20435;-79
2021/04/27 02:57:12;;;;;;;6.50;3.65;;;7.90;48.40;;;6.36;41.61;97634.66;5083309;28;20427;-78
2021/04/27 02:59:39;;;;;;;9.52;3.78;;;7.60;49.00;;;6.44;41.10;97632.56;5081534;28;20757;-79
2021/04/27 03:02:05;;;;;;;6.97;3.22;;;7.50;49.40;;;6.70;40.53;97641.97;5081971;28;20415;-79
2021/04/27 03:04:31;;;;;;;5.50;3.50;;;7.60;48.90;;;6.76;39.81;97640.31;5063291;28;20670;-79
2021/04/27 03:06:58;;;;;;;9.13;3.97;;;7.80;48.60;;;6.75;39.71;97636.06;5081008;28;20407;-79
2021/04/27 03:09:24;;;;;;;8.05;3.70;;;7.80;47.60;;;6.72;40.63;97636.50;5080831;28;20404;-79
2021/04/27 03:11:51;;;;;;;8.57;3.80;;;7.90;48.50;;;6.47;40.93;97628.66;5081278;28;20698;-78
2021/04/27 03:14:17;;;;;;;7.25;3.33;;;7.60;49.10;;;6.11;41.61;97638.13;5079300;28;20403;-78
2021/04/27 03:16:43;;;;;;;7.60;3.70;;;7.30;49.80;;;5.96;42.31;97642.91;5063324;28;20415;-79
2021/04/27 03:19:10;;;;;;;7.50;3.55;;;7.10;50.40;;;5.86;42.34;97639.94;5081841;28;20415;-79
2021/04/27 03:21:36;;;;;;;5.97;3.80;;;7.00;50.70;;;5.75;42.98;97649.31;5064053;28;20426;-78
2021/04/27 03:24:03;;;;;;;5.43;3.50;;;6.90;51.20;;;5.67;43.15;97646.94;5081917;28;20908;-79
2021/04/27 03:26:30;;;;;;;12.52;4.05;;;6.80;51.40;;;5.57;43.65;97637.91;5062458;28;20416;-78
2021/04/27 03:28:57;;;;;;;9.77;3.83;;;6.70;51.80;;;5.48;43.54;97636.59;5062615;28;20430;-79
2021/04/27 03:31:23;;;;;;;7.65;3.50;;;6.60;51.90;;;5.43;43.71;97637.19;5082466;28;20416;-79
2021/04/27 03:33:49;;;;;;;9.13;3.85;;;6.60;52.00;;;5.49;43.72;97643.44;5071556;28;20477;-79
2021/04/27 03:36:16;;;;;;;7.45;3.92;;;6.60;52.20;;;5.42;43.97;97643.47;5097332;28;20431;-78
2021/04/27 03:38:42;;;;;;;5.78;3.83;;;6.50;52.30;;;5.41;44.08;97647.91;5097687;28;20408;-79
2021/04/27 03:41:08;;;;;;;15.65;4.50;;;6.50;52.70;;;5.48;44.27;97645.28;5086836;28;20408;-79
2021/04/27 03:43:34;;;;;;;8.17;3.67;;;6.50;53.00;;;5.44;43.98;97649.31;5092958;28;20390;-79
2021/04/27 03:46:02;;;;;;;8.05;3.83;;;6.50;52.60;;;5.46;44.45;97642.03;5096744;28;20420;-79
2021/04/27 03:48:28;;;;;;;6.43;3.42;;;6.50;52.90;;;5.45;44.54;97648.31;5096456;28;20411;-79
2021/04/27 03:50:55;;;;;;;7.63;3.43;;;6.50;53.00;;;5.32;44.08;97643.94;5088214;28;20490;-79
2021/04/27 03:53:21;;;;;;;8.20;4.38;;;6.40;52.70;;;5.37;44.20;97648.56;5085204;28;20419;-79
2021/04/27 03:55:47;;;;;;;13.13;3.97;;;6.40;52.80;;;5.39;44.31;97641.28;5089314;28;20472;-79
2021/04/27 03:58:14;;;;;;;8.00;3.70;;;6.50;52.80;;;5.40;44.07;97640.28;5064052;28;20419;-79
2021/04/27 04:00:40;;;;;;;6.07;3.35;;;6.50;53.00;;;5.26;44.50;97644.00;5078932;28;20442;-77
2021/04/27 04:03:08;;;;;;;7.20;3.97;;;6.40;53.30;;;5.16;45.07;97636.56;5080413;28;20415;-79
2021/04/27 04:05:34;;;;;;;12.90;4.25;;;6.30;53.70;;;5.28;45.00;97647.19;5064132;28;20418;-79
2021/04/27 04:08:00;;;;;;;9.73;3.45;;;6.30;54.50;;;5.30;45.26;97645.16;5081197;28;20421;-79
2021/04/27 04:10:26;;;;;;;12.32;4.07;;;6.40;53.70;;;5.37;44.63;97638.88;5081309;28;20499;-79
2021/04/27 04:12:53;;;;;;;9.43;4.13;;;6.40;53.50;;;5.42;44.82;97640.84;5086741;28;20410;-79
2021/04/27 04:15:20;;;;;;;9.10;3.92;;;6.50;53.80;;;5.58;44.46;97647.41;5090525;28;20430;-79
2021/04/27 04:17:46;;;;;;;7.97;3.78;;;6.60;53.40;;;5.77;43.60;97641.22;5091584;28;20400;-79
2021/04/27 04:20:17;;;;;;;10.02;3.70;;;6.80;52.70;;;5.90;43.07;97635.06;5089838;28;20475;-78
2021/04/27 04:22:44;;;;;;;10.13;3.80;;;7.00;52.60;;;6.01;42.79;97642.28;5093003;28;20392;-80
2021/04/27 04:25:13;;;;;;;6.82;3.83;;;7.10;51.50;;;6.11;42.61;97642.56;5092439;28;20408;-79
2021/04/27 04:27:40;;;;;;;8.40;3.92;;;7.10;51.30;;;6.14;42.47;97650.03;5090277;28;20526;-79
2021/04/27 04:30:11;;;;;;;8.73;3.70;;;7.20;51.10;;;6.14;42.53;97645.59;5080514;28;20797;-79
2021/04/27 04:32:38;;;;;;;6.97;3.65;;;7.20;51.00;;;6.15;42.57;97649.81;5080548;28;20419;-79
2021/04/27 04:35:05;;;;;;;6.70;4.15;;;7.20;51.10;;;6.16;42.58;97648.78;5080939;28;20434;-81
2021/04/27 04:37:34;;;;;;;6.05;3.53;;;7.20;51.30;;;6.20;42.46;97654.41;5080585;28;20416;-80
2021/04/27 04:40:00;;;;;;;16.08;3.80;;;7.20;51.20;;;6.26;42.66;97645.66;5081014;28;20426;-80
2021/04/27 04:42:26;;;;;;;8.95;4.35;;;7.30;51.30;;;5.67;44.05;97656.63;5085547;28;20704;-78
2021/04/27 04:44:52;;;;;;;6.15;3.78;;;6.90;52.40;;;5.59;44.42;97656.91;5089189;28;20391;-79
2021/04/27 04:47:19;;;;;;;10.90;3.88;;;6.70;53.20;;;5.67;44.05;97648.75;5091274;28;20399;-79
2021/04/27 04:49:45;;;;;;;8.65;4.20;;;6.70;53.20;;;5.87;43.49;97649.41;5088785;28;20447;-79
2021/04/27 04:52:11;;;;;;;8.25;4.30;;;6.90;52.50;;;5.76;44.16;97650.13;5069991;28;20785;-79
2021/04/27 04:54:40;;;;;;;10.68;4.32;;;7.00;52.70;;;5.56;44.69;97649.47;5086452;28;20418;-79
2021/04/27 04:57:07;;;;;;;11.00;3.90;;;6.60;53.40;;;5.80;43.86;97651.28;5080085;28;20438;-80
2021/04/27 04:59:36;;;;;;;6.97;4.10;;;6.80;52.80;;;6.01;43.29;97650.97;5080673;28;20484;-79
2021/04/27 05:02:02;;;;;;;14.48;4.43;;;7.00;52.30;;;5.89;44.40;97652.66;5081047;28;20524;-79
2021/04/27 05:04:29;;;;;;;8.85;4.25;;;7.00;53.00;;;6.11;43.63;97656.50;5083166;28;20400;-79
2021/04/27 05:07:00;;;;;;;13.90;4.07;;;7.10;52.80;;;6.18;43.12;97653.81;5083155;28;20880;-79
2021/04/27 05:09:26;;;;;;;9.57;3.83;;;7.20;51.90;;;6.26;42.76;97660.63;5064079;28;20468;-79
2021/04/27 05:11:54;;;;;;;12.15;4.22;;;7.30;51.60;;;6.30;42.58;97653.94;5079773;28;20422;-79
2021/04/27 05:14:21;;;;;;;10.23;4.10;;;7.30;51.40;;;6.28;42.68;97653.34;5080193;28;20412;-79
2021/04/27 05:16:47;;;;;;;9.20;3.90;;;7.30;51.40;;;6.31;42.80;97655.53;5079253;28;20428;-79
2021/04/27 05:19:13;;;;;;;13.40;4.60;;;7.30;51.40;;;6.31;42.37;97663.44;5079042;28;20400;-78
2021/04/27 05:21:39;;;;;;;10.07;4.25;;;7.30;51.40;;;6.31;42.42;97653.72;5080046;28;20732;-80
2021/04/27 05:24:07;;;;;;;9.40;3.85;;;7.30;51.20;;;6.32;42.76;97662.38;5079952;28;20433;-79
2021/04/27 05:26:34;;;;;;;8.10;3.85;;;7.40;51.50;;;6.33;42.43;97667.44;5079764;28;20502;-81
2021/04/27 05:29:01;;;;;;;6.33;3.77;;;7.40;51.20;;;6.40;42.61;97668.16;5081379;28;20457;-80
2021/04/27 05:31:27;;;;;;;6.90;3.80;;;7.40;51.50;;;6.43;42.58;97666.94;5061426;28;20423;-82
2021/04/27 05:33:54;;;;;;;11.07;4.38;;;7.40;51.40;;;6.24;43.74;97665.31;5078404;28;20445;-82
2021/04/27 05:36:20;;;;;;;10.57;4.15;;;7.40;52.50;;;5.93;44.32;97659.13;5078429;28;20785;-84
2021/04/27 05:38:46;;;;;;;10.50;4.20;;;7.10;53.00;;;5.61;45.10;97663.56;5060366;28;20437;-86
2021/04/27 05:41:13;;;;;;;7.65;4.13;;;6.80;53.80;;;5.63;45.54;97658.91;5077696;28;20426;-83
2021/04/27 05:43:39;;;;;;;12.23;4.53;;;6.70;54.60;;;5.71;45.49;97657.84;5077759;28;20438;-81
2021/04/27 05:46:07;;;;;;;13.45;4.50;;;6.70;54.60;;;6.05;44.23;97659.22;5079104;28;20422;-81
2021/04/27 05:48:33;;;;;;;13.70;5.68;;;7.00;54.30;;;6.31;43.43;97653.72;5063106;28;20809;-81
2021/04/27 05:50:59;;;;;;;17.40;5.35;;;7.30;52.70;;;6.63;43.12;97650.94;5081017;28;20411;-81
2021/04/27 05:53:26;;;;;;;11.70;4.60;;;7.60;52.50;;;6.72;42.79;97652.28;5083879;28;20491;-81
2021/04/27 05:55:52;;;;;;;12.35;4.55;;;7.70;51.90;;;6.84;42.44;97656.56;5088270;28;20408;-81
2021/04/27 05:58:18;;;;;;;13.25;4.68;;;7.80;51.60;;;7.05;42.07;97646.63;5092424;28;20411;-80
2021/04/27 06:00:45;;;;;;;12.48;4.82;;;8.00;51.20;;;7.16;41.81;97644.03;5077058;28;20423;-78
2021/04/27 06:03:12;;;;;;;12.43;4.87;;;8.10;50.90;;;7.32;41.49;97648.69;5092581;28;20478;-79
2021/04/27 06:05:39;;;;;;;12.25;4.10;;;8.20;50.50;;;7.29;41.43;97638.56;5068947;28;20423;-80
2021/04/27 06:08:05;;;;;;;9.77;4.78;;;8.30;50.20;;;7.35;41.50;97636.91;5066702;28;20423;-80
2021/04/27 06:10:32;;;;;;;19.15;4.95;;;8.30;50.30;;;7.37;41.39;97640.91;5082944;28;20667;-79
2021/04/27 06:13:01;;;;;;;10.20;4.20;;;8.30;50.00;;;7.39;40.81;97638.06;5081462;28;20829;-79
2021/04/27 06:15:27;;;;;;;15.82;4.75;;;8.30;49.40;;;7.43;40.90;97641.06;5081999;28;20403;-79
2021/04/27 06:17:53;;;;;;;25.27;13.75;;;8.40;49.60;;;7.58;40.44;97636.97;5080937;28;20423;-79
2021/04/27 06:20:21;;;;;;;8.85;4.63;;;8.50;49.30;;;7.39;40.72;97638.06;5081551;28;20415;-79
2021/04/27 06:22:47;;;;;;;13.18;5.05;;;8.40;49.20;;;7.31;41.06;97647.06;5062903;28;20412;-79
2021/04/27 06:25:13;;;;;;;16.25;4.22;;;8.30;49.70;;;7.38;41.17;97636.44;5063834;28;20399;-78
2021/04/27 06:27:40;;;;;;;16.15;6.22;;;8.30;50.00;;;7.46;40.64;97644.03;5082559;28;20407;-79
2021/04/27 06:30:10;;;;;;;12.38;6.10;;;8.40;49.40;;;7.46;40.70;97633.50;5081713;28;20700;-78
2021/04/27 06:32:36;;;;;;;9.18;4.35;;;8.40;49.40;;;7.50;40.70;97637.28;5082068;28;20522;-78
2021/04/27 06:35:03;;;;;;;8.38;4.40;;;8.40;49.60;;;7.58;40.63;97636.16;5083102;28;20462;-80
2021/04/27 06:37:31;;;;;;;11.07;4.63;;;8.50;49.50;;;7.56;40.66;97638.22;5083293;28;20423;-80
2021/04/27 06:39:57;;;;;;;8.48;4.45;;;8.50;49.30;;;7.54;40.80;97635.81;5081371;28;20408;-80
2021/04/27 06:42:23;;;;;;;11.65;4.65;;;8.50;49.40;;;7.66;40.50;97639.28;5081640;28;20424;-80
2021/04/27 06:44:50;;;;;;;15.25;4.75;;;8.60;49.50;;;7.83;40.48;97634.13;5082417;28;20417;-79
2021/04/27 06:47:16;;;;;;;20.73;10.83;;;8.70;49.50;;;7.99;40.32;97637.94;5081030;28;20529;-79
2021/04/27 06:49:43;;;;;;;14.80;5.43;;;8.90;49.10;;;7.92;40.37;97632.78;5080227;28;20467;-79
2021/04/27 06:52:09;;;;;;;13.00;5.53;;;8.80;49.00;;;7.88;40.43;97634.28;5082640;28;20855;-79
2021/04/27 06:54:38;;;;;;;8.88;4.53;;;8.80;49.10;;;7.78;40.70;97636.66;5065261;28;20445;-79
2021/04/27 06:57:05;;;;;;;9.65;4.60;;;8.70;49.40;;;7.90;40.61;97639.31;5083263;28;20731;-80
2021/04/27 06:59:31;;;;;;;11.18;4.80;;;8.80;49.40;;;8.10;40.44;97631.88;5081117;28;20446;-79
2021/04/27 07:01:59;;;;;;;12.75;4.97;;;9.00;49.20;;;8.14;40.02;97636.47;5081689;28;20423;-79
2021/04/27 07:04:25;;;;;;;11.63;5.60;;;9.00;48.90;;;8.16;40.04;97629.13;5083899;28;20609;-80
2021/04/27 07:06:54;;;;;;;10.75;4.72;;;9.00;48.70;;;8.28;39.94;97625.69;5082820;28;20446;-80
2021/04/27 07:09:21;;;;;;;10.75;5.05;;;9.10;48.60;;;8.34;39.55;97624.81;5083578;28;20426;-78
2021/04/27 07:11:50;;;;;;;9.23;4.93;;;9.20;48.30;;;8.41;39.34;97622.84;5080714;28;20458;-79
2021/04/27 07:14:16;;;;;;;11.68;5.38;;;9.30;48.20;;;8.75;39.07;97629.09;5080643;28;20396;-80
2021/04/27 07:16:45;;;;;;;10.73;4.60;;;9.60;47.90;;;8.47;39.40;97628.00;5080040;28;20438;-80
2021/04/27 07:19:11;;;;;;;13.20;5.10;;;9.60;47.60;;;8.78;39.23;97632.09;5080735;28;20498;-80
2021/04/27 07:21:39;;;;;;;10.75;5.53;;;9.60;48.00;;;8.73;39.38;97621.41;5083603;28;20419;-79
2021/04/27 07:24:07;;;;;;;14.45;5.20;;;9.60;47.70;;;8.84;39.10;97630.34;5071675;28;20415;-80
2021/04/27 07:26:35;;;;;;;12.80;5.27;;;9.70;47.70;;;8.67;39.23;97632.91;5082201;28;20469;-80
2021/04/27 07:29:03;;;;;;;18.25;4.93;;;9.60;47.50;;;8.25;40.40;97634.06;5084916;28;20415;-80
2021/04/27 07:31:30;;;;;;;14.27;5.40;;;9.40;48.40;;;7.98;41.28;97631.06;5088994;28;20441;-79
2021/04/27 07:33:57;;;;;;;15.45;5.43;;;9.00;49.50;;;8.29;40.24;97622.81;5089513;28;20407;-80
2021/04/27 07:36:23;;;;;;;11.93;5.07;;;9.20;49.50;;;8.30;40.16;97621.78;5080378;28;20419;-80
2021/04/27 07:38:49;;;;;;;11.65;5.10;;;9.20;48.80;;;8.40;40.22;97627.31;5079997;28;20407;-78
2021/04/27 07:41:16;;;;;;;13.20;5.50;;;9.20;49.00;;;8.73;39.63;97626.69;5081235;28;20516;-79
2021/04/27 07:43:42;;;;;;;11.33;5.60;;;9.60;48.60;;;8.86;39.33;97625.63;5084136;28;20483;-80
2021/04/27 07:46:10;;;;;;;13.52;5.80;;;9.70;48.10;;;8.76;39.34;97628.88;5085883;28;20450;-79
2021/04/27 07:48:36;;;;;;;12.57;6.13;;;9.70;47.90;;;8.96;39.18;97625.00;5096564;28;20517;-79
2021/04/27 07:51:03;;;;;;;14.02;5.45;;;9.80;48.20;;;9.21;38.72;97625.50;5096528;28;20418;-79
2021/04/27 07:53:29;;;;;;;14.43;5.28;;;10.10;47.50;;;9.62;38.24;97625.19;5096245;28;20396;-79
2021/04/27 07:55:56;;;;;;;10.90;5.15;;;10.40;47.00;;;9.70;37.58;97619.50;5095880;28;20407;-79
2021/04/27 07:58:22;;;;;;;14.98;5.95;;;10.60;46.30;;;9.48;38.47;97620.44;5071921;28;20430;-79
2021/04/27 08:00:49;;;;;;;13.98;5.25;;;10.40;46.70;;;9.61;37.90;97622.81;5063119;28;20732;-81
2021/04/27 08:03:17;;;;;;;15.35;5.80;;;10.50;46.40;;;9.61;38.06;97622.81;5063003;28;20418;-80
2021/04/27 08:05:43;;;;;;;13.73;5.53;;;10.50;46.70;;;9.58;38.16;97625.91;5083683;28;20427;-79
2021/04/27 08:08:10;;;;;;;13.43;5.60;;;10.50;46.60;;;9.79;37.84;97624.41;5082052;28;20478;-79
2021/04/27 08:10:36;;;;;;;19.60;5.90;;;10.60;46.50;;;9.80;38.04;97623.34;5082852;28;20423;-79
2021/04/27 08:13:03;;;;;;;22.55;6.05;;;10.60;46.40;;;10.03;37.64;97617.91;5081632;28;20412;-79
2021/04/27 08:15:31;;;;;;;13.73;6.15;;;10.90;46.20;;;9.50;38.55;97619.16;5080956;28;20542;-79
2021/04/27 08:18:01;;;;;;;10.85;5.70;;;10.40;47.10;;;9.76;38.04;97617.75;5064457;28;20435;-79
2021/04/27 08:20:30;;;;;;;13.40;5.67;;;10.60;46.70;;;9.94;37.93;97617.50;5081428;28;20774;-79
2021/04/27 08:22:56;;;;;;;18.67;6.72;;;10.70;46.60;;;10.23;37.48;97620.06;5083014;28;20456;-80
2021/04/27 08:25:23;;;;;;;16.10;6.90;;;11.00;46.30;;;10.23;37.07;97622.72;5086040;28;20403;-80
2021/04/27 08:27:50;;;;;;;10.77;5.57;;;11.10;45.40;;;10.24;37.22;97622.47;5063899;28;20576;-80
2021/04/27 08:30:21;;;;;;;14.70;6.32;;;11.00;45.40;;;10.59;36.75;97619.53;5064084;28;20415;-80
2021/04/27 08:32:48;;;;;;;13.27;5.88;;;11.30;45.40;;;10.53;36.62;97623.16;5080810;28;20455;-80
2021/04/27 08:35:15;;;;;;;15.80;6.15;;;11.40;44.80;;;10.63;36.44;97618.00;5081610;28;20421;-80
2021/04/27 08:37:43;;;;;;;17.98;6.25;;;11.40;44.80;;;10.64;36.31;97611.66;5082157;28;20580;-80
2021/04/27 08:40:13;;;;;;;12.75;6.13;;;11.50;44.60;;;10.84;36.26;97614.53;5063778;28;20455;-80
2021/04/27 08:42:39;;;;;;;14.98;6.65;;;11.60;44.60;;;10.62;36.83;97613.75;5081092;28;20534;-79
2021/04/27 08:45:10;;;;;;;12.85;5.68;;;11.60;44.90;;;10.78;36.34;97615.53;5082608;28;20410;-79
2021/04/27 08:47:37;;;;;;;14.63;6.43;;;11.60;45.10;;;10.90;36.00;97612.75;5064508;28;20801;-80
2021/04/27 08:50:10;;;;;;;16.15;6.20;;;11.70;44.30;;;11.03;35.81;97604.44;5090624;28;20459;-80
2021/04/27 08:52:38;;;;;;;13.90;6.30;;;11.80;44.10;;;11.25;35.56;97607.06;5090010;28;20438;-80
2021/04/27 08:55:08;;;;;;;21.17;6.25;;;12.00;43.90;;;11.38;34.90;97598.72;5093194;28;20402;-80
2021/04/27 08:57:35;;;;;;;13.35;6.35;;;12.10;43.20;;;11.34;35.34;97596.81;5075899;28;20435;-80
2021/04/27 09:00:04;;;;;;;11.55;6.13;;;12.10;43.50;;;11.55;35.03;97601.25;5086765;28;20400;-79
2021/04/27 09:02:31;;;;;;;14.90;5.88;;;12.20;43.40;;;10.51;37.53;97598.00;5078142;28;20428;-78
2021/04/27 09:04:58;;;;;;;13.75;6.05;;;11.50;45.60;;;10.92;36.83;97588.69;5076996;28;20461;-79
2021/04/27 09:07:27;;;;;;;18.27;6.97;;;11.60;45.70;;;11.35;35.90;97593.91;5077562;28;20415;-79
2021/04/27 09:09:56;;;;;;;12.65;5.70;;;12.00;44.40;;;11.59;35.14;97592.53;5081040;28;20447;-79
2021/04/27 09:12:27;;;;;;;16.88;6.63;;;12.40;43.60;;;11.71;34.66;97587.09;5080068;28;20541;-81
2021/04/27 09:14:57;;;;;;;16.38;7.05;;;12.50;42.80;;;12.03;34.68;97587.88;5062361;28;20780;-78
2021/04/27 09:17:26;;;;;;;12.32;6.93;;;12.70;42.90;;;12.01;33.81;97586.53;5063908;28;20424;-79
2021/04/27 09:19:55;;;;;;;22.83;6.47;;;12.80;41.80;;;12.12;33.79;97582.09;5082087;28;20409;-79
2021/04/27 09:22:24;;;;;;;19.35;6.85;;;12.90;42.00;;;12.14;34.13;97574.69;5083219;28;20412;-79
2021/04/27 09:24:53;;;;;;;12.30;6.63;;;12.90;42.10;;;11.96;34.50;97581.19;5084206;28;20403;-79
2021/04/27 09:27:28;;;;;;;16.50;6.80;;;12.70;42.10;;;11.86;34.58;97581.13;5088348;28;20781;-82
2021/04/27 09:29:55;;;;;;;28.30;7.38;;;12.60;42.30;;;11.94;34.46;97580.66;5070657;28;20527;-82
2021/04/27 09:32:35;;;;;;;20.42;7.13;;;12.70;42.60;;;12.02;34.36;97585.50;5086186;28;20446;-83
2021/04/27 09:35:32;;;;;;;12.82;7.03;;;12.80;42.30;;;12.04;34.22;97578.06;5081009;28;20470;-80
2021/04/27 09:38:17;;;;;;;16.67;7.20;;;12.70;42.30;;;12.17;34.73;97577.63;5078654;28;20596;-81
2021/04/27 09:40:53;;;;;;;14.63;7.32;;;12.90;42.40;;;12.45;34.12;97576.44;5077153;28;20431;-80
2021/04/27 09:43:24;;;;;;;14.73;6.90;;;13.10;42.20;;;12.45;34.05;97568.50;5078554;28;20703;-81
2021/04/27 09:45:54;;;;;;;13.73;7.15;;;13.20;41.90;;;12.40;33.93;97566.59;5078336;28;20733;-80
2021/04/27 09:48:33;;;;;;;27.80;7.43;;;13.20;41.60;;;12.45;33.83;97562.38;5077893;28;20400;-82
2021/04/27 09:51:22;;;;;;;13.80;7.53;;;13.20;41.60;;;12.63;33.99;97568.03;5078442;28;20399;-79
2021/04/27 09:53:53;;;;;;;18.77;7.43;;;13.30;41.90;;;12.61;33.80;97559.53;5080143;28;20414;-80
2021/04/27 09:56:39;;;;;;;13.82;7.32;;;13.30;41.50;;;12.80;33.23;97559.84;5078092;28;20809;-78
2021/04/27 09:59:10;;;;;;;16.77;7.15;;;13.50;41.20;;;13.01;33.10;97550.09;5061489;28;20505;-79
2021/04/27 10:01:37;;;;;;;14.57;6.63;;;13.70;40.80;;;13.10;32.78;97546.66;5079110;28;20482;-79
2021/04/27 10:04:05;;;;;;;15.23;7.35;;;13.80;40.50;;;13.09;32.73;97552.22;5061165;28;20419;-79
2021/04/27 10:06:32;;;;;;;18.20;7.88;;;13.90;40.50;;;12.94;33.36;97549.53;5078996;28;20415;-81
2021/04/27 10:08:59;;;;;;;14.07;6.78;;;13.70;41.10;;;12.69;33.67;97550.28;5061390;28;20422;-79
2021/04/27 10:11:27;;;;;;;18.40;7.80;;;13.50;41.30;;;12.90;33.72;97543.16;5079897;28;20465;-80
2021/04/27 10:13:55;;;;;;;14.70;7.32;;;13.60;41.70;;;13.01;33.20;97539.44;5079900;28;20424;-80
2021/04/27 10:16:23;;;;;;;21.02;7.47;;;13.80;40.90;;;13.02;33.47;97538.41;5089298;28;20482;-80
2021/04/27 10:18:52;;;;;;;15.27;7.68;;;13.70;41.30;;;13.40;32.85;97532.63;5072154;28;20415;-80
2021/04/27 10:21:19;;;;;;;21.65;7.82;;;14.00;41.00;;;13.73;32.37;97538.50;5089635;28;20425;-79
2021/04/27 10:23:49;;;;;;;18.90;9.20;;;14.40;40.10;;;13.71;32.14;97529.97;5083153;28;20469;-80
2021/04/27 10:26:20;;;;;;;19.65;9.23;;;14.50;39.50;;;13.64;32.18;97530.25;5079162;28;20499;-80
2021/04/27 10:29:07;;;;;;;18.92;9.20;;;14.40;39.70;;;13.51;32.26;97528.94;5079748;28;20465;-80